sensor_id;sensor_type;location;lat;lon;timestamp;temperature;humidity
38860;DHT22;24609;48.316;16.174;2024-02-23T00:01:06;7.10;1.00
38860;DHT22;24609;48.316;16.174;2024-02-23T00:03:33;7.10;1.00
38860;DHT22;24609;48.316;16.174;2024-02-23T00:06:00;7.10;1.00
38860;DHT22;24609;48.316;16.174;2024-02-23T00:08:25;7.10;1.00
38860;DHT22;24609;48.316;16.174;2024-02-23T00:10:51;7.10;1.00
38860;DHT22;24609;48.316;16.174;2024-02-23T00:13:17;7.10;1.00
38860;DHT22;24609;48.316;16.174;2024-02-23T00:15:42;7.10;1.00
38860;DHT22;24609;48.316;16.174;2024-02-23T00:18:09;7.10;1.00
38860;DHT22;24609;48.316;16.174;2024-02-23T00:20:35;7.10;1.00
38860;DHT22;24609;48.316;16.174;2024-02-23T00:23:02;7.00;1.00
38860;DHT22;24609;48.316;16.174;2024-02-23T00:25:28;7.00;1.00
38860;DHT22;24609;48.316;16.174;2024-02-23T00:27:54;7.00;1.00
38860;DHT22;24609;48.316;16.174;2024-02-23T00:30:19;7.00;1.00
38860;DHT22;24609;48.316;16.174;2024-02-23T00:32:45;7.00;1.00
38860;DHT22;24609;48.316;16.174;2024-02-23T00:35:11;7.10;1.00
38860;DHT22;24609;48.316;16.174;2024-02-23T00:37:36;7.10;1.00
38860;DHT22;24609;48.316;16.174;2024-02-23T00:40:03;7.00;99.90
38860;DHT22;24609;48.316;16.174;2024-02-23T00:42:30;7.00;99.90
38860;DHT22;24609;48.316;16.174;2024-02-23T00:44:56;7.00;1.00
38860;DHT22;24609;48.316;16.174;2024-02-23T00:47:22;7.00;1.00
38860;DHT22;24609;48.316;16.174;2024-02-23T00:49:47;7.00;1.00
38860;DHT22;24609;48.316;16.174;2024-02-23T00:52:14;7.10;1.00
38860;DHT22;24609;48.316;16.174;2024-02-23T00:54:40;7.00;99.90
38860;DHT22;24609;48.316;16.174;2024-02-23T00:57:06;6.90;1.00
38860;DHT22;24609;48.316;16.174;2024-02-23T00:59:31;6.90;1.00
38860;DHT22;24609;48.316;16.174;2024-02-23T01:01:58;6.90;1.00
38860;DHT22;24609;48.316;16.174;2024-02-23T01:04:23;7.00;1.00
38860;DHT22;24609;48.316;16.174;2024-02-23T01:06:49;7.00;1.00
38860;DHT22;24609;48.316;16.174;2024-02-23T01:09:15;7.10;1.00
38860;DHT22;24609;48.316;16.174;2024-02-23T01:11:48;7.10;1.00
38860;DHT22;24609;48.316;16.174;2024-02-23T01:14:14;7.10;99.90
38860;DHT22;24609;48.316;16.174;2024-02-23T01:16:40;7.00;99.90
38860;DHT22;24609;48.316;16.174;2024-02-23T01:19:05;7.00;99.90
38860;DHT22;24609;48.316;16.174;2024-02-23T01:21:31;7.00;99.90
38860;DHT22;24609;48.316;16.174;2024-02-23T01:23:57;7.10;99.90
38860;DHT22;24609;48.316;16.174;2024-02-23T01:26:23;7.00;99.90
38860;DHT22;24609;48.316;16.174;2024-02-23T01:28:49;7.00;99.90
38860;DHT22;24609;48.316;16.174;2024-02-23T01:31:15;7.00;99.90
38860;DHT22;24609;48.316;16.174;2024-02-23T01:33:40;7.00;99.90
38860;DHT22;24609;48.316;16.174;2024-02-23T01:36:06;6.90;99.90
38860;DHT22;24609;48.316;16.174;2024-02-23T01:38:33;6.90;99.90
38860;DHT22;24609;48.316;16.174;2024-02-23T01:40:59;6.90;99.90
38860;DHT22;24609;48.316;16.174;2024-02-23T01:43:25;6.90;99.90
38860;DHT22;24609;48.316;16.174;2024-02-23T01:45:51;6.90;99.90
38860;DHT22;24609;48.316;16.174;2024-02-23T01:48:18;7.00;99.90
38860;DHT22;24609;48.316;16.174;2024-02-23T01:50:44;6.90;99.90
38860;DHT22;24609;48.316;16.174;2024-02-23T01:53:12;7.00;99.90
38860;DHT22;24609;48.316;16.174;2024-02-23T01:55:45;6.90;99.90
38860;DHT22;24609;48.316;16.174;2024-02-23T01:58:11;6.90;99.90
38860;DHT22;24609;48.316;16.174;2024-02-23T02:00:37;6.90;99.90
38860;DHT22;24609;48.316;16.174;2024-02-23T02:03:04;7.00;99.90
38860;DHT22;24609;48.316;16.174;2024-02-23T02:05:30;7.00;99.90
38860;DHT22;24609;48.316;16.174;2024-02-23T02:07:56;7.00;1.00
38860;DHT22;24609;48.316;16.174;2024-02-23T02:10:25;7.00;1.00
38860;DHT22;24609;48.316;16.174;2024-02-23T02:12:51;7.10;99.90
38860;DHT22;24609;48.316;16.174;2024-02-23T02:15:17;7.00;99.90
38860;DHT22;24609;48.316;16.174;2024-02-23T02:17:44;6.90;99.90
38860;DHT22;24609;48.316;16.174;2024-02-23T02:20:12;6.70;99.90
38860;DHT22;24609;48.316;16.174;2024-02-23T02:22:39;6.60;1.00
38860;DHT22;24609;48.316;16.174;2024-02-23T02:25:05;6.60;1.00
38860;DHT22;24609;48.316;16.174;2024-02-23T02:27:31;6.60;1.00
38860;DHT22;24609;48.316;16.174;2024-02-23T02:29:57;6.70;1.00
38860;DHT22;24609;48.316;16.174;2024-02-23T02:32:23;6.70;1.00
38860;DHT22;24609;48.316;16.174;2024-02-23T02:34:49;6.70;1.00
38860;DHT22;24609;48.316;16.174;2024-02-23T02:37:15;6.80;1.00
38860;DHT22;24609;48.316;16.174;2024-02-23T02:39:41;6.80;1.00
38860;DHT22;24609;48.316;16.174;2024-02-23T02:42:07;6.80;1.00
38860;DHT22;24609;48.316;16.174;2024-02-23T02:44:33;6.80;1.00
38860;DHT22;24609;48.316;16.174;2024-02-23T02:46:58;6.80;1.00
38860;DHT22;24609;48.316;16.174;2024-02-23T02:49:24;6.70;1.00
38860;DHT22;24609;48.316;16.174;2024-02-23T02:51:50;6.80;1.00
38860;DHT22;24609;48.316;16.174;2024-02-23T02:54:16;6.80;1.00
38860;DHT22;24609;48.316;16.174;2024-02-23T02:56:47;6.80;1.00
38860;DHT22;24609;48.316;16.174;2024-02-23T02:59:12;6.80;1.00
38860;DHT22;24609;48.316;16.174;2024-02-23T03:01:39;6.80;1.00
38860;DHT22;24609;48.316;16.174;2024-02-23T03:04:05;6.90;1.00
38860;DHT22;24609;48.316;16.174;2024-02-23T03:06:31;6.80;1.00
38860;DHT22;24609;48.316;16.174;2024-02-23T03:08:56;6.80;1.00
38860;DHT22;24609;48.316;16.174;2024-02-23T03:11:22;6.90;1.00
38860;DHT22;24609;48.316;16.174;2024-02-23T03:13:48;6.80;1.00
38860;DHT22;24609;48.316;16.174;2024-02-23T03:16:17;6.70;1.00
38860;DHT22;24609;48.316;16.174;2024-02-23T03:18:43;6.70;1.00
38860;DHT22;24609;48.316;16.174;2024-02-23T03:21:09;6.70;1.00
38860;DHT22;24609;48.316;16.174;2024-02-23T03:23:36;6.70;5.30
38860;DHT22;24609;48.316;16.174;2024-02-23T03:26:02;6.70;15.00
38860;DHT22;24609;48.316;16.174;2024-02-23T03:28:28;6.70;25.70
38860;DHT22;24609;48.316;16.174;2024-02-23T03:30:54;6.80;31.50
38860;DHT22;24609;48.316;16.174;2024-02-23T03:33:19;6.80;37.40
38860;DHT22;24609;48.316;16.174;2024-02-23T03:35:45;6.80;40.90
38860;DHT22;24609;48.316;16.174;2024-02-23T03:38:11;6.90;42.20
38860;DHT22;24609;48.316;16.174;2024-02-23T03:40:36;6.90;40.00
38860;DHT22;24609;48.316;16.174;2024-02-23T03:43:03;6.90;37.60
38860;DHT22;24609;48.316;16.174;2024-02-23T03:45:29;7.00;39.50
38860;DHT22;24609;48.316;16.174;2024-02-23T03:47:54;7.00;40.40
38860;DHT22;24609;48.316;16.174;2024-02-23T03:50:20;7.00;41.10
38860;DHT22;24609;48.316;16.174;2024-02-23T03:52:46;7.10;38.00
38860;DHT22;24609;48.316;16.174;2024-02-23T03:55:11;7.20;35.60
38860;DHT22;24609;48.316;16.174;2024-02-23T03:57:37;7.20;7.70
38860;DHT22;24609;48.316;16.174;2024-02-23T04:00:04;7.20;1.00
38860;DHT22;24609;48.316;16.174;2024-02-23T04:02:31;7.20;2.90
38860;DHT22;24609;48.316;16.174;2024-02-23T04:04:57;7.30;7.10
38860;DHT22;24609;48.316;16.174;2024-02-23T04:07:23;7.30;9.10
38860;DHT22;24609;48.316;16.174;2024-02-23T04:09:49;7.30;14.40
38860;DHT22;24609;48.316;16.174;2024-02-23T04:12:18;7.30;24.40
38860;DHT22;24609;48.316;16.174;2024-02-23T04:14:45;7.20;35.00
38860;DHT22;24609;48.316;16.174;2024-02-23T04:17:11;7.20;41.70
38860;DHT22;24609;48.316;16.174;2024-02-23T04:19:37;7.30;54.60
38860;DHT22;24609;48.316;16.174;2024-02-23T04:22:05;7.30;66.10
38860;DHT22;24609;48.316;16.174;2024-02-23T04:24:34;7.30;69.50
38860;DHT22;24609;48.316;16.174;2024-02-23T04:27:00;7.30;70.70
38860;DHT22;24609;48.316;16.174;2024-02-23T04:29:25;7.30;67.10
38860;DHT22;24609;48.316;16.174;2024-02-23T04:31:52;7.40;55.20
38860;DHT22;24609;48.316;16.174;2024-02-23T04:34:18;7.50;42.20
38860;DHT22;24609;48.316;16.174;2024-02-23T04:36:43;7.50;33.60
38860;DHT22;24609;48.316;16.174;2024-02-23T04:39:09;7.60;10.20
38860;DHT22;24609;48.316;16.174;2024-02-23T04:41:34;7.70;1.00
38860;DHT22;24609;48.316;16.174;2024-02-23T04:44:00;7.80;1.00
38860;DHT22;24609;48.316;16.174;2024-02-23T04:46:27;7.80;1.00
38860;DHT22;24609;48.316;16.174;2024-02-23T04:48:52;7.90;1.00
38860;DHT22;24609;48.316;16.174;2024-02-23T04:51:18;7.90;1.00
38860;DHT22;24609;48.316;16.174;2024-02-23T04:53:44;7.90;1.00
38860;DHT22;24609;48.316;16.174;2024-02-23T04:56:10;7.90;1.00
38860;DHT22;24609;48.316;16.174;2024-02-23T04:58:35;7.90;1.00
38860;DHT22;24609;48.316;16.174;2024-02-23T05:01:03;7.90;1.00
38860;DHT22;24609;48.316;16.174;2024-02-23T05:03:29;7.90;1.00
38860;DHT22;24609;48.316;16.174;2024-02-23T05:05:54;8.00;99.90
38860;DHT22;24609;48.316;16.174;2024-02-23T05:08:21;8.00;99.90
38860;DHT22;24609;48.316;16.174;2024-02-23T05:10:47;8.10;99.90
38860;DHT22;24609;48.316;16.174;2024-02-23T05:13:13;8.10;99.90
38860;DHT22;24609;48.316;16.174;2024-02-23T05:15:39;8.00;99.90
38860;DHT22;24609;48.316;16.174;2024-02-23T05:18:05;8.00;99.90
38860;DHT22;24609;48.316;16.174;2024-02-23T05:20:30;8.00;99.90
38860;DHT22;24609;48.316;16.174;2024-02-23T05:22:56;8.00;99.90
38860;DHT22;24609;48.316;16.174;2024-02-23T05:25:22;8.00;99.90
38860;DHT22;24609;48.316;16.174;2024-02-23T05:27:47;8.00;99.90
38860;DHT22;24609;48.316;16.174;2024-02-23T05:30:13;8.00;99.90
38860;DHT22;24609;48.316;16.174;2024-02-23T05:32:39;8.00;99.90
38860;DHT22;24609;48.316;16.174;2024-02-23T05:35:05;7.90;99.90
38860;DHT22;24609;48.316;16.174;2024-02-23T05:37:31;7.90;99.90
38860;DHT22;24609;48.316;16.174;2024-02-23T05:39:57;8.00;99.90
38860;DHT22;24609;48.316;16.174;2024-02-23T05:42:25;8.00;99.90
38860;DHT22;24609;48.316;16.174;2024-02-23T05:44:51;7.90;99.90
38860;DHT22;24609;48.316;16.174;2024-02-23T05:47:17;7.90;99.90
38860;DHT22;24609;48.316;16.174;2024-02-23T05:49:43;7.90;99.90
38860;DHT22;24609;48.316;16.174;2024-02-23T05:52:09;7.90;99.90
38860;DHT22;24609;48.316;16.174;2024-02-23T05:54:35;7.90;99.90
38860;DHT22;24609;48.316;16.174;2024-02-23T05:57:01;7.90;99.90
38860;DHT22;24609;48.316;16.174;2024-02-23T05:59:26;7.90;99.90
38860;DHT22;24609;48.316;16.174;2024-02-23T06:01:53;7.90;99.90
38860;DHT22;24609;48.316;16.174;2024-02-23T06:04:22;7.90;99.90
38860;DHT22;24609;48.316;16.174;2024-02-23T06:06:48;7.90;99.90
38860;DHT22;24609;48.316;16.174;2024-02-23T06:09:14;8.00;99.90
38860;DHT22;24609;48.316;16.174;2024-02-23T06:11:39;8.00;99.90
38860;DHT22;24609;48.316;16.174;2024-02-23T06:14:05;8.00;99.90
38860;DHT22;24609;48.316;16.174;2024-02-23T06:16:30;7.90;99.90
38860;DHT22;24609;48.316;16.174;2024-02-23T06:18:56;7.90;99.90
38860;DHT22;24609;48.316;16.174;2024-02-23T06:21:23;7.90;99.90
38860;DHT22;24609;48.316;16.174;2024-02-23T06:23:49;7.80;99.90
38860;DHT22;24609;48.316;16.174;2024-02-23T06:26:15;7.90;99.90
38860;DHT22;24609;48.316;16.174;2024-02-23T06:28:42;7.90;99.90
38860;DHT22;24609;48.316;16.174;2024-02-23T06:31:08;7.90;99.90
38860;DHT22;24609;48.316;16.174;2024-02-23T06:33:34;7.90;99.90
38860;DHT22;24609;48.316;16.174;2024-02-23T06:36:00;7.90;99.90
38860;DHT22;24609;48.316;16.174;2024-02-23T06:38:26;7.90;99.90
38860;DHT22;24609;48.316;16.174;2024-02-23T06:40:52;7.90;99.90
38860;DHT22;24609;48.316;16.174;2024-02-23T06:43:18;7.90;99.90
38860;DHT22;24609;48.316;16.174;2024-02-23T06:45:44;7.90;99.90
38860;DHT22;24609;48.316;16.174;2024-02-23T06:48:10;8.00;99.90
38860;DHT22;24609;48.316;16.174;2024-02-23T06:50:36;8.00;99.90
38860;DHT22;24609;48.316;16.174;2024-02-23T06:53:01;8.00;99.90
38860;DHT22;24609;48.316;16.174;2024-02-23T06:55:28;8.10;99.90
38860;DHT22;24609;48.316;16.174;2024-02-23T06:57:54;8.10;99.90
38860;DHT22;24609;48.316;16.174;2024-02-23T07:00:22;8.10;99.90
38860;DHT22;24609;48.316;16.174;2024-02-23T07:02:48;8.20;99.90
38860;DHT22;24609;48.316;16.174;2024-02-23T07:05:14;8.20;99.90
38860;DHT22;24609;48.316;16.174;2024-02-23T07:07:40;8.30;99.90
38860;DHT22;24609;48.316;16.174;2024-02-23T07:10:07;8.20;99.90
38860;DHT22;24609;48.316;16.174;2024-02-23T07:12:33;8.20;99.90
38860;DHT22;24609;48.316;16.174;2024-02-23T07:14:59;8.30;99.90
38860;DHT22;24609;48.316;16.174;2024-02-23T07:17:24;8.40;99.90
38860;DHT22;24609;48.316;16.174;2024-02-23T07:19:50;8.60;99.90
38860;DHT22;24609;48.316;16.174;2024-02-23T07:22:17;8.60;99.90
38860;DHT22;24609;48.316;16.174;2024-02-23T07:24:48;8.70;96.10
38860;DHT22;24609;48.316;16.174;2024-02-23T07:27:15;8.70;99.90
38860;DHT22;24609;48.316;16.174;2024-02-23T07:29:40;8.80;75.60
38860;DHT22;24609;48.316;16.174;2024-02-23T07:32:06;8.80;85.70
38860;DHT22;24609;48.316;16.174;2024-02-23T07:34:32;8.80;60.30
38860;DHT22;24609;48.316;16.174;2024-02-23T07:36:57;8.80;44.10
38860;DHT22;24609;48.316;16.174;2024-02-23T07:39:23;8.80;17.60
38860;DHT22;24609;48.316;16.174;2024-02-23T07:41:50;8.70;1.00
38860;DHT22;24609;48.316;16.174;2024-02-23T07:44:15;8.70;1.00
38860;DHT22;24609;48.316;16.174;2024-02-23T07:46:41;8.70;1.00
38860;DHT22;24609;48.316;16.174;2024-02-23T07:49:07;8.60;1.00
38860;DHT22;24609;48.316;16.174;2024-02-23T07:51:33;8.60;1.00
38860;DHT22;24609;48.316;16.174;2024-02-23T07:53:58;8.60;1.00
38860;DHT22;24609;48.316;16.174;2024-02-23T07:56:24;8.60;1.00
38860;DHT22;24609;48.316;16.174;2024-02-23T07:58:50;8.60;1.00
38860;DHT22;24609;48.316;16.174;2024-02-23T08:01:15;8.50;1.00
38860;DHT22;24609;48.316;16.174;2024-02-23T08:03:41;8.60;1.00
38860;DHT22;24609;48.316;16.174;2024-02-23T08:06:07;8.60;1.00
38860;DHT22;24609;48.316;16.174;2024-02-23T08:08:33;8.50;1.00
38860;DHT22;24609;48.316;16.174;2024-02-23T08:11:03;8.30;1.00
38860;DHT22;24609;48.316;16.174;2024-02-23T08:13:29;8.10;88.60
38860;DHT22;24609;48.316;16.174;2024-02-23T08:15:55;8.20;99.90
38860;DHT22;24609;48.316;16.174;2024-02-23T08:18:21;8.20;99.90
38860;DHT22;24609;48.316;16.174;2024-02-23T08:20:48;8.30;99.90
38860;DHT22;24609;48.316;16.174;2024-02-23T08:23:14;8.30;99.90
38860;DHT22;24609;48.316;16.174;2024-02-23T08:25:39;8.40;99.90
38860;DHT22;24609;48.316;16.174;2024-02-23T08:28:05;8.30;99.90
38860;DHT22;24609;48.316;16.174;2024-02-23T08:30:32;8.20;99.90
38860;DHT22;24609;48.316;16.174;2024-02-23T08:32:57;8.20;99.90
38860;DHT22;24609;48.316;16.174;2024-02-23T08:35:23;8.10;99.90
38860;DHT22;24609;48.316;16.174;2024-02-23T08:37:49;8.10;99.90
38860;DHT22;24609;48.316;16.174;2024-02-23T08:40:14;8.10;99.90
38860;DHT22;24609;48.316;16.174;2024-02-23T08:42:40;8.10;99.90
38860;DHT22;24609;48.316;16.174;2024-02-23T08:45:06;8.10;99.90
38860;DHT22;24609;48.316;16.174;2024-02-23T08:47:32;8.10;99.90
38860;DHT22;24609;48.316;16.174;2024-02-23T08:50:00;8.10;99.90
38860;DHT22;24609;48.316;16.174;2024-02-23T08:52:26;8.00;99.90
38860;DHT22;24609;48.316;16.174;2024-02-23T08:54:52;8.00;99.90
38860;DHT22;24609;48.316;16.174;2024-02-23T08:57:18;8.10;99.90
38860;DHT22;24609;48.316;16.174;2024-02-23T08:59:48;8.10;99.90
38860;DHT22;24609;48.316;16.174;2024-02-23T09:02:14;8.10;99.90
38860;DHT22;24609;48.316;16.174;2024-02-23T09:04:40;8.10;99.90
38860;DHT22;24609;48.316;16.174;2024-02-23T09:07:06;8.20;99.90
38860;DHT22;24609;48.316;16.174;2024-02-23T09:09:32;8.30;99.90
38860;DHT22;24609;48.316;16.174;2024-02-23T09:11:57;8.30;99.90
38860;DHT22;24609;48.316;16.174;2024-02-23T09:14:23;8.50;99.90
38860;DHT22;24609;48.316;16.174;2024-02-23T09:16:51;8.60;99.90
38860;DHT22;24609;48.316;16.174;2024-02-23T09:19:17;8.50;99.90
38860;DHT22;24609;48.316;16.174;2024-02-23T09:21:44;8.70;99.90
38860;DHT22;24609;48.316;16.174;2024-02-23T09:24:09;8.70;99.90
38860;DHT22;24609;48.316;16.174;2024-02-23T09:26:35;8.80;99.90
38860;DHT22;24609;48.316;16.174;2024-02-23T09:29:01;9.00;99.90
38860;DHT22;24609;48.316;16.174;2024-02-23T09:31:26;9.30;99.90
38860;DHT22;24609;48.316;16.174;2024-02-23T09:33:54;9.50;99.90
38860;DHT22;24609;48.316;16.174;2024-02-23T09:36:20;9.70;99.90
38860;DHT22;24609;48.316;16.174;2024-02-23T09:38:47;9.90;99.90
38860;DHT22;24609;48.316;16.174;2024-02-23T09:41:21;9.80;1.00
38860;DHT22;24609;48.316;16.174;2024-02-23T09:43:47;9.80;1.00
38860;DHT22;24609;48.316;16.174;2024-02-23T09:46:19;9.70;1.00
38860;DHT22;24609;48.316;16.174;2024-02-23T09:48:45;9.70;1.00
38860;DHT22;24609;48.316;16.174;2024-02-23T09:51:12;9.90;99.90
38860;DHT22;24609;48.316;16.174;2024-02-23T09:53:39;10.00;99.90
38860;DHT22;24609;48.316;16.174;2024-02-23T09:56:05;10.20;99.90
38860;DHT22;24609;48.316;16.174;2024-02-23T09:58:32;10.20;1.00
38860;DHT22;24609;48.316;16.174;2024-02-23T10:00:58;10.20;14.50
38860;DHT22;24609;48.316;16.174;2024-02-23T10:03:27;10.20;1.00
38860;DHT22;24609;48.316;16.174;2024-02-23T10:05:54;10.10;99.90
38860;DHT22;24609;48.316;16.174;2024-02-23T10:08:20;10.00;1.00
38860;DHT22;24609;48.316;16.174;2024-02-23T10:10:46;10.10;1.00
38860;DHT22;24609;48.316;16.174;2024-02-23T10:13:12;10.10;99.90
38860;DHT22;24609;48.316;16.174;2024-02-23T10:15:37;10.20;99.90
38860;DHT22;24609;48.316;16.174;2024-02-23T10:18:04;10.20;99.90
38860;DHT22;24609;48.316;16.174;2024-02-23T10:20:30;9.90;1.00
38860;DHT22;24609;48.316;16.174;2024-02-23T10:22:56;9.80;99.90
38860;DHT22;24609;48.316;16.174;2024-02-23T10:25:22;9.60;99.90
38860;DHT22;24609;48.316;16.174;2024-02-23T10:27:48;9.50;1.00
38860;DHT22;24609;48.316;16.174;2024-02-23T10:30:14;9.50;1.00
38860;DHT22;24609;48.316;16.174;2024-02-23T10:32:43;9.50;39.80
38860;DHT22;24609;48.316;16.174;2024-02-23T10:35:17;9.60;87.10
38860;DHT22;24609;48.316;16.174;2024-02-23T10:37:44;9.50;99.90
38860;DHT22;24609;48.316;16.174;2024-02-23T10:40:13;9.60;99.90
38860;DHT22;24609;48.316;16.174;2024-02-23T10:42:41;9.90;99.90
38860;DHT22;24609;48.316;16.174;2024-02-23T10:45:10;10.10;99.90
38860;DHT22;24609;48.316;16.174;2024-02-23T10:47:36;10.60;99.90
38860;DHT22;24609;48.316;16.174;2024-02-23T10:50:02;10.80;1.00
38860;DHT22;24609;48.316;16.174;2024-02-23T10:52:31;10.70;1.00
38860;DHT22;24609;48.316;16.174;2024-02-23T10:54:57;10.70;99.90
38860;DHT22;24609;48.316;16.174;2024-02-23T10:57:26;10.90;99.90
38860;DHT22;24609;48.316;16.174;2024-02-23T10:59:52;11.30;99.90
38860;DHT22;24609;48.316;16.174;2024-02-23T11:02:20;11.80;1.00
38860;DHT22;24609;48.316;16.174;2024-02-23T11:04:47;12.40;99.90
38860;DHT22;24609;48.316;16.174;2024-02-23T11:07:19;12.60;99.90
38860;DHT22;24609;48.316;16.174;2024-02-23T11:09:51;12.40;99.90
38860;DHT22;24609;48.316;16.174;2024-02-23T11:12:29;12.10;1.00
38860;DHT22;24609;48.316;16.174;2024-02-23T11:15:01;11.90;99.90
38860;DHT22;24609;48.316;16.174;2024-02-23T11:17:29;11.30;99.90
38860;DHT22;24609;48.316;16.174;2024-02-23T11:19:55;11.20;36.60
38860;DHT22;24609;48.316;16.174;2024-02-23T11:22:26;11.10;99.90
38860;DHT22;24609;48.316;16.174;2024-02-23T11:24:52;10.90;99.90
38860;DHT22;24609;48.316;16.174;2024-02-23T11:27:18;10.90;99.90
38860;DHT22;24609;48.316;16.174;2024-02-23T11:29:47;10.90;99.90
38860;DHT22;24609;48.316;16.174;2024-02-23T11:32:16;10.90;1.00
38860;DHT22;24609;48.316;16.174;2024-02-23T11:34:55;10.90;1.00
38860;DHT22;24609;48.316;16.174;2024-02-23T11:37:22;11.10;63.70
38860;DHT22;24609;48.316;16.174;2024-02-23T11:39:48;11.40;99.90
38860;DHT22;24609;48.316;16.174;2024-02-23T11:42:14;11.20;1.00
38860;DHT22;24609;48.316;16.174;2024-02-23T11:44:40;11.20;95.40
38860;DHT22;24609;48.316;16.174;2024-02-23T11:47:07;11.00;99.90
38860;DHT22;24609;48.316;16.174;2024-02-23T11:49:33;10.80;99.90
38860;DHT22;24609;48.316;16.174;2024-02-23T11:51:58;10.60;99.90
38860;DHT22;24609;48.316;16.174;2024-02-23T11:54:25;10.50;1.00
38860;DHT22;24609;48.316;16.174;2024-02-23T11:56:51;10.50;99.90
38860;DHT22;24609;48.316;16.174;2024-02-23T11:59:19;10.60;1.00
38860;DHT22;24609;48.316;16.174;2024-02-23T12:01:46;10.70;1.00
38860;DHT22;24609;48.316;16.174;2024-02-23T12:04:14;10.60;99.90
38860;DHT22;24609;48.316;16.174;2024-02-23T12:06:40;10.70;99.90
38860;DHT22;24609;48.316;16.174;2024-02-23T12:09:06;10.90;1.00
38860;DHT22;24609;48.316;16.174;2024-02-23T12:11:32;11.30;99.90
38860;DHT22;24609;48.316;16.174;2024-02-23T12:13:57;11.80;99.90
38860;DHT22;24609;48.316;16.174;2024-02-23T12:16:23;12.00;33.10
38860;DHT22;24609;48.316;16.174;2024-02-23T12:18:55;12.00;99.90
38860;DHT22;24609;48.316;16.174;2024-02-23T12:21:21;12.20;1.00
38860;DHT22;24609;48.316;16.174;2024-02-23T12:23:49;12.20;1.00
38860;DHT22;24609;48.316;16.174;2024-02-23T12:26:17;11.90;99.90
38860;DHT22;24609;48.316;16.174;2024-02-23T12:28:44;11.40;99.90
38860;DHT22;24609;48.316;16.174;2024-02-23T12:31:10;10.90;1.00
38860;DHT22;24609;48.316;16.174;2024-02-23T12:33:38;10.50;99.90
38860;DHT22;24609;48.316;16.174;2024-02-23T12:36:06;10.20;99.90
38860;DHT22;24609;48.316;16.174;2024-02-23T12:38:32;10.20;99.90
38860;DHT22;24609;48.316;16.174;2024-02-23T12:40:59;10.20;99.90
38860;DHT22;24609;48.316;16.174;2024-02-23T12:43:26;10.10;99.90
38860;DHT22;24609;48.316;16.174;2024-02-23T12:45:56;9.90;1.00
38860;DHT22;24609;48.316;16.174;2024-02-23T12:48:22;9.40;1.00
38860;DHT22;24609;48.316;16.174;2024-02-23T12:50:48;9.00;99.90
38860;DHT22;24609;48.316;16.174;2024-02-23T12:53:33;8.90;1.00
38860;DHT22;24609;48.316;16.174;2024-02-23T12:56:03;9.10;1.00
38860;DHT22;24609;48.316;16.174;2024-02-23T12:58:29;9.30;99.90
38860;DHT22;24609;48.316;16.174;2024-02-23T13:00:56;9.50;99.90
38860;DHT22;24609;48.316;16.174;2024-02-23T13:03:23;9.60;99.90
38860;DHT22;24609;48.316;16.174;2024-02-23T13:05:49;9.30;1.00
38860;DHT22;24609;48.316;16.174;2024-02-23T13:08:16;9.10;1.00
38860;DHT22;24609;48.316;16.174;2024-02-23T13:10:41;9.00;11.40
38860;DHT22;24609;48.316;16.174;2024-02-23T13:13:07;9.00;37.30
38860;DHT22;24609;48.316;16.174;2024-02-23T13:15:33;8.90;1.00
38860;DHT22;24609;48.316;16.174;2024-02-23T13:17:58;9.00;99.90
38860;DHT22;24609;48.316;16.174;2024-02-23T13:20:24;8.90;93.60
38860;DHT22;24609;48.316;16.174;2024-02-23T13:22:50;9.00;1.00
38860;DHT22;24609;48.316;16.174;2024-02-23T13:25:16;8.90;1.00
38860;DHT22;24609;48.316;16.174;2024-02-23T13:27:41;8.90;99.90
38860;DHT22;24609;48.316;16.174;2024-02-23T13:30:07;8.80;99.90
38860;DHT22;24609;48.316;16.174;2024-02-23T13:32:33;8.70;99.90
38860;DHT22;24609;48.316;16.174;2024-02-23T13:34:59;8.70;99.90
38860;DHT22;24609;48.316;16.174;2024-02-23T13:37:29;8.70;99.90
38860;DHT22;24609;48.316;16.174;2024-02-23T13:39:55;8.60;99.90
38860;DHT22;24609;48.316;16.174;2024-02-23T13:42:21;8.60;99.90
38860;DHT22;24609;48.316;16.174;2024-02-23T13:44:46;8.60;99.90
38860;DHT22;24609;48.316;16.174;2024-02-23T13:47:12;8.60;99.90
38860;DHT22;24609;48.316;16.174;2024-02-23T13:49:38;8.60;99.90
38860;DHT22;24609;48.316;16.174;2024-02-23T13:52:04;8.60;99.90
38860;DHT22;24609;48.316;16.174;2024-02-23T13:54:29;8.60;99.90
38860;DHT22;24609;48.316;16.174;2024-02-23T13:56:55;8.50;99.90
38860;DHT22;24609;48.316;16.174;2024-02-23T13:59:21;8.60;99.90
38860;DHT22;24609;48.316;16.174;2024-02-23T14:01:46;8.60;99.90
38860;DHT22;24609;48.316;16.174;2024-02-23T14:04:12;8.60;99.90
38860;DHT22;24609;48.316;16.174;2024-02-23T14:06:38;8.50;99.90
38860;DHT22;24609;48.316;16.174;2024-02-23T14:09:03;8.50;99.90
38860;DHT22;24609;48.316;16.174;2024-02-23T14:11:30;8.50;99.90
38860;DHT22;24609;48.316;16.174;2024-02-23T14:13:56;8.50;99.90
38860;DHT22;24609;48.316;16.174;2024-02-23T14:16:22;8.60;99.90
38860;DHT22;24609;48.316;16.174;2024-02-23T14:18:49;8.60;1.00
38860;DHT22;24609;48.316;16.174;2024-02-23T14:21:15;8.50;1.00
38860;DHT22;24609;48.316;16.174;2024-02-23T14:23:42;8.50;93.50
38860;DHT22;24609;48.316;16.174;2024-02-23T14:26:08;8.70;84.40
38860;DHT22;24609;48.316;16.174;2024-02-23T14:28:34;8.90;1.00
38860;DHT22;24609;48.316;16.174;2024-02-23T14:31:00;9.00;99.90
38860;DHT22;24609;48.316;16.174;2024-02-23T14:33:25;9.30;15.10
38860;DHT22;24609;48.316;16.174;2024-02-23T14:35:51;9.30;1.00
38860;DHT22;24609;48.316;16.174;2024-02-23T14:38:17;9.30;99.90
38860;DHT22;24609;48.316;16.174;2024-02-23T14:40:43;9.20;99.90
38860;DHT22;24609;48.316;16.174;2024-02-23T14:43:09;9.00;99.90
38860;DHT22;24609;48.316;16.174;2024-02-23T14:45:35;8.90;1.00
38860;DHT22;24609;48.316;16.174;2024-02-23T14:48:01;8.90;1.00
38860;DHT22;24609;48.316;16.174;2024-02-23T14:50:28;9.00;1.00
38860;DHT22;24609;48.316;16.174;2024-02-23T14:52:54;9.00;1.00
38860;DHT22;24609;48.316;16.174;2024-02-23T14:55:20;9.00;1.00
38860;DHT22;24609;48.316;16.174;2024-02-23T14:57:45;9.00;75.10
38860;DHT22;24609;48.316;16.174;2024-02-23T15:00:12;9.00;99.90
38860;DHT22;24609;48.316;16.174;2024-02-23T15:02:38;8.90;61.30
38860;DHT22;24609;48.316;16.174;2024-02-23T15:05:05;8.90;99.90
38860;DHT22;24609;48.316;16.174;2024-02-23T15:07:32;8.90;99.90
38860;DHT22;24609;48.316;16.174;2024-02-23T15:09:58;8.90;99.90
38860;DHT22;24609;48.316;16.174;2024-02-23T15:12:25;8.90;99.90
38860;DHT22;24609;48.316;16.174;2024-02-23T15:14:53;8.80;99.90
38860;DHT22;24609;48.316;16.174;2024-02-23T15:17:19;8.80;99.90
38860;DHT22;24609;48.316;16.174;2024-02-23T15:19:45;8.80;99.90
38860;DHT22;24609;48.316;16.174;2024-02-23T15:22:11;8.80;99.90
38860;DHT22;24609;48.316;16.174;2024-02-23T15:24:40;8.80;99.90
38860;DHT22;24609;48.316;16.174;2024-02-23T15:27:08;8.80;99.90